Time;durP1;ratioP1;P1;durP2;ratioP2;P2;SDS_P1;SDS_P2;PMS_P1;PMS_P2;Temp;Humidity;BMP_temperature;BMP_pressure;BME280_temperature;BME280_humidity;BME280_pressure;Samples;Min_cycle;Max_cycle;Signal;HPM_P1;HPM_P2
2021/08/18 00:02:05;;;;;;;4.53;2.00;;;;;;;23.49;48.16;101023.06;5053443;28;20211;-60
2021/08/18 00:04:31;;;;;;;4.77;1.97;;;;;;;23.45;48.16;101010.47;5053541;28;20199;-60
2021/08/18 00:06:56;;;;;;;3.67;1.87;;;;;;;23.26;48.31;100989.59;5053299;28;20204;-61
2021/08/18 00:09:22;;;;;;;4.87;1.73;;;;;;;23.39;48.04;101009.69;5053396;28;20176;-60
2021/08/18 00:11:47;;;;;;;4.27;2.00;;;;;;;23.41;48.13;101010.72;5053190;28;20176;-60
2021/08/18 00:14:13;;;;;;;5.47;2.00;;;;;;;22.98;48.13;100960.47;5053367;28;20180;-60
2021/08/18 00:16:39;;;;;;;6.83;2.13;;;;;;;23.30;48.47;101015.56;5053284;28;20173;-60
2021/08/18 00:19:04;;;;;;;4.03;1.90;;;;;;;23.30;48.04;101021.22;5053034;28;20185;-61
2021/08/18 00:21:30;;;;;;;4.87;1.97;;;;;;;23.28;48.19;101015.31;5053127;28;20223;-60
2021/08/18 00:23:55;;;;;;;6.30;2.27;;;;;;;23.21;48.06;101024.28;5053241;28;20180;-60
2021/08/18 00:26:26;;;;;;;4.05;1.75;;;;;;;23.25;47.65;101024.81;5052868;28;20203;-60
2021/08/18 00:28:53;;;;;;;4.93;2.20;;;;;;;23.24;47.63;101015.53;5052852;28;20504;-60
2021/08/18 00:31:18;;;;;;;3.60;1.80;;;;;;;23.23;47.37;101027.38;5052871;28;20172;-61
2021/08/18 00:33:44;;;;;;;3.93;2.00;;;;;;;23.21;46.88;101024.28;5052933;28;20193;-60
2021/08/18 00:36:09;;;;;;;4.73;1.80;;;;;;;23.06;46.94;101021.63;5052997;28;20212;-60
2021/08/18 00:38:35;;;;;;;7.83;1.83;;;;;;;23.08;47.01;101029.63;5034948;28;20164;-60
2021/08/18 00:41:00;;;;;;;3.33;1.70;;;;;;;22.76;47.25;101005.56;5035138;28;20187;-60
2021/08/18 00:43:26;;;;;;;2.60;1.70;;;;;;;22.85;47.45;101034.41;5052518;28;20224;-60
2021/08/18 00:45:51;;;;;;;4.93;1.90;;;;;;;22.82;47.91;101026.19;5051868;28;20262;-61
2021/08/18 00:48:17;;;;;;;5.83;1.60;;;;;;;22.66;48.28;101015.53;5052598;28;20624;-60
2021/08/18 00:50:43;;;;;;;4.83;1.90;;;;;;;22.78;48.47;101032.03;5052580;28;20564;-60
2021/08/18 00:53:08;;;;;;;4.40;2.00;;;;;;;22.75;48.57;101026.63;5052360;28;20619;-60
2021/08/18 00:55:34;;;;;;;6.97;1.70;;;;;;;22.42;48.70;101001.03;5052636;28;20658;-60
2021/08/18 00:58:01;;;;;;;4.83;1.90;;;;;;;22.41;48.58;100986.13;5052299;28;20238;-60
2021/08/18 01:00:28;;;;;;;3.33;1.53;;;;;;;22.63;48.80;101042.75;5052231;28;20173;-60
2021/08/18 01:02:56;;;;;;;4.90;1.83;;;;;;;22.56;49.02;101045.31;5052584;28;20176;-60
2021/08/18 01:08:11;;;;;;;5.10;2.07;;;;;;;22.30;48.95;101005.81;5052151;28;20266;-60
2021/08/18 01:10:37;;;;;;;3.17;1.63;;;;;;;22.43;49.25;101033.63;5052284;28;20188;-60
2021/08/18 01:13:06;;;;;;;5.00;1.97;;;;;;;22.31;49.07;101038.44;5052120;28;20253;-60
2021/08/18 01:15:33;;;;;;;4.70;1.90;;;;;;;22.09;49.38;101026.97;5033924;28;20184;-61
2021/08/18 01:18:01;;;;;;;6.00;2.20;;;;;;;22.06;49.51;101027.97;5051901;28;20254;-60
2021/08/18 01:20:39;;;;;;;4.60;2.10;;;;;;;22.11;49.22;101032.13;5051804;28;20263;-60
2021/08/18 01:23:08;;;;;;;5.90;2.10;;;;;;;21.99;49.16;101036.91;5051912;28;20267;-60
2021/08/18 01:25:35;;;;;;;5.87;1.80;;;;;;;21.84;49.16;101039.09;5052019;28;20661;-60
2021/08/18 01:28:02;;;;;;;6.17;1.77;;;;;;;21.81;49.13;101033.69;5051788;28;20263;-60
2021/08/18 01:30:31;;;;;;;5.57;1.93;;;;;;;21.76;49.04;101031.59;5051976;28;20626;-61
2021/08/18 01:33:08;;;;;;;6.30;1.90;;;;;;;21.65;48.81;101035.03;5051511;28;20192;-60
2021/08/18 01:35:36;;;;;;;4.50;1.77;;;;;;;21.15;48.67;100957.66;5051726;28;20160;-60
2021/08/18 01:38:05;;;;;;;5.10;1.90;;;;;;;21.56;48.52;101028.81;5052114;28;20256;-60
2021/08/18 01:40:31;;;;;;;5.53;1.67;;;;;;;21.17;48.47;100974.06;5051547;28;20271;-60
2021/08/18 01:42:57;;;;;;;5.23;1.70;;;;;;;21.35;48.35;101013.97;5051211;28;20224;-60
2021/08/18 01:45:32;;;;;;;6.87;1.83;;;;;;;21.38;48.10;101018.63;5051417;28;20527;-60
2021/08/18 01:48:04;;;;;;;6.87;1.60;;;;;;;20.97;48.17;100957.19;5051396;28;20235;-60
2021/08/18 01:50:30;;;;;;;7.13;1.73;;;;;;;21.35;48.12;101016.78;5051330;28;20165;-60
2021/08/18 01:52:56;;;;;;;8.97;2.00;;;;;;;21.23;48.53;101012.31;5051413;28;20180;-60
2021/08/18 01:55:25;;;;;;;7.10;1.87;;;;;;;21.29;48.17;101018.03;5051346;28;20183;-60
2021/08/18 01:57:51;;;;;;;7.03;1.70;;;;;;;21.24;48.33;101011.03;5051296;28;20176;-60
2021/08/18 02:00:17;;;;;;;3.70;1.57;;;;;;;21.20;48.20;101009.72;5051467;28;20230;-60
2021/08/18 02:02:44;;;;;;;6.40;1.50;;;;;;;21.18;48.31;101015.84;5051335;28;20552;-60
2021/08/18 02:05:10;;;;;;;5.13;1.67;;;;;;;21.08;48.35;100993.97;5051332;28;20168;-60
2021/08/18 02:07:36;;;;;;;4.93;1.53;;;;;;;21.16;48.20;100992.25;5051171;28;20448;-60
2021/08/18 02:10:07;;;;;;;4.10;1.60;;;;;;;21.22;47.80;101001.53;5031258;28;20586;-60
2021/08/18 02:12:33;;;;;;;5.93;1.80;;;;;;;21.12;48.05;100998.09;5031196;28;20173;-60
2021/08/18 02:14:59;;;;;;;3.20;1.53;;;;;;;21.18;48.09;101010.22;5031232;28;20177;-60
2021/08/18 02:17:25;;;;;;;3.00;1.53;;;;;;;21.10;48.13;101008.31;5051199;28;20610;-60
2021/08/18 02:19:50;;;;;;;2.10;1.30;;;;;;;21.13;47.90;101007.34;5050989;28;20179;-60
2021/08/18 02:22:15;;;;;;;4.67;1.63;;;;;;;21.04;47.75;101004.66;5051114;28;20180;-60
2021/08/18 02:24:41;;;;;;;4.83;1.60;;;;;;;20.60;47.77;100945.75;5051110;28;20540;-60
2021/08/18 02:27:06;;;;;;;6.63;1.90;;;;;;;21.08;47.77;101008.06;5050926;28;20578;-60
2021/08/18 02:29:32;;;;;;;3.37;1.10;;;;;;;20.61;46.79;100929.59;5050901;28;20168;-60
2021/08/18 02:31:57;;;;;;;3.00;1.20;;;;;;;21.03;46.55;101017.97;5033007;28;20718;-60
2021/08/18 02:34:23;;;;;;;5.20;1.30;;;;;;;21.01;46.51;101005.66;5050971;28;20646;-60
2021/08/18 02:36:48;;;;;;;4.03;1.23;;;;;;;21.11;46.42;101012.69;5050829;28;20169;-60
2021/08/18 02:39:14;;;;;;;5.27;1.40;;;;;;;21.10;46.07;101011.94;5050783;28;20247;-60
2021/08/18 02:41:39;;;;;;;4.33;1.43;;;;;;;21.16;46.13;101009.16;5050797;28;20182;-60
2021/08/18 02:44:05;;;;;;;4.43;1.40;;;;;;;21.18;45.99;101009.44;5050608;28;20224;-60
2021/08/18 02:46:30;;;;;;;4.40;1.30;;;;;;;21.16;45.77;100997.88;5033068;28;20176;-60
2021/08/18 02:48:56;;;;;;;3.73;1.50;;;;;;;21.06;45.93;101002.13;5050936;28;20263;-60
2021/08/18 02:51:21;;;;;;;2.60;0.97;;;;;;;20.89;46.15;100987.88;5050702;28;20627;-60
2021/08/18 02:53:47;;;;;;;3.40;1.47;;;;;;;20.98;46.06;101007.41;5050767;28;20252;-60
2021/08/18 02:56:12;;;;;;;5.03;1.50;;;;;;;20.88;46.27;101008.03;5050756;28;20198;-60
2021/08/18 02:58:38;;;;;;;5.30;1.80;;;;;;;20.84;46.54;101019.53;5050716;28;20202;-60
2021/08/18 03:01:03;;;;;;;3.60;1.30;;;;;;;20.77;46.64;101005.09;5050502;28;20179;-60
2021/08/18 03:03:29;;;;;;;2.53;1.20;;;;;;;20.81;46.32;101005.63;5051089;28;20256;-60
2021/08/18 03:05:54;;;;;;;5.57;1.53;;;;;;;20.71;46.29;101004.22;5050757;28;20186;-60
2021/08/18 03:08:19;;;;;;;5.53;1.27;;;;;;;20.69;46.67;101013.19;5052228;28;20205;-60
2021/08/18 03:10:45;;;;;;;5.00;1.50;;;;;;;20.64;46.79;101013.09;5054577;28;20243;-60
2021/08/18 03:13:10;;;;;;;4.90;1.30;;;;;;;20.55;46.96;101010.41;5036598;28;20184;-60
2021/08/18 03:15:36;;;;;;;4.20;1.77;;;;;;;20.39;47.34;100985.63;5054197;28;20204;-60
2021/08/18 03:18:02;;;;;;;3.40;1.53;;;;;;;20.46;47.31;101007.75;5054445;28;20249;-60
2021/08/18 03:20:27;;;;;;;6.03;1.40;;;;;;;20.34;47.46;100998.38;5054003;28;20210;-60
2021/08/18 03:22:53;;;;;;;6.10;1.50;;;;;;;20.37;47.61;101008.63;5054809;28;20183;-60
2021/08/18 03:25:20;;;;;;;3.23;1.40;;;;;;;20.43;47.49;101005.91;5054377;28;20652;-60
2021/08/18 03:27:46;;;;;;;4.93;1.37;;;;;;;20.35;47.60;101008.34;5054102;28;20231;-60
2021/08/18 03:30:13;;;;;;;6.03;1.57;;;;;;;20.35;47.62;101016.81;5054177;28;20268;-60
2021/08/18 03:32:38;;;;;;;2.87;1.40;;;;;;;20.43;47.49;101017.94;5053972;28;20169;-60
2021/08/18 03:35:05;;;;;;;4.73;1.40;;;;;;;20.13;47.73;100987.56;5054282;28;20180;-60
2021/08/18 03:37:30;;;;;;;5.43;1.63;;;;;;;20.41;47.46;101034.53;5053799;28;20249;-60
2021/08/18 03:39:56;;;;;;;2.97;1.33;;;;;;;20.33;47.07;101019.34;5053809;28;20182;-60
2021/08/18 03:42:22;;;;;;;4.87;1.50;;;;;;;20.35;47.45;101025.25;5053862;28;20179;-60
2021/08/18 03:44:47;;;;;;;6.27;1.30;;;;;;;20.34;47.33;101022.91;5053621;28;20714;-60
2021/08/18 03:47:13;;;;;;;3.53;1.37;;;;;;;20.36;47.39;101032.41;5053764;28;20273;-60
2021/08/18 03:49:38;;;;;;;4.40;1.40;;;;;;;20.34;47.29;101034.97;5053619;28;20726;-60
2021/08/18 03:52:06;;;;;;;4.40;1.23;;;;;;;20.42;47.34;101035.34;5053586;28;20186;-60
2021/08/18 03:54:31;;;;;;;3.90;1.30;;;;;;;20.31;47.43;101026.72;5053664;28;20180;-60
2021/08/18 03:56:57;;;;;;;2.77;1.30;;;;;;;20.35;47.39;101027.28;5053528;28;20172;-60
2021/08/18 03:59:22;;;;;;;3.93;1.30;;;;;;;20.29;47.63;101027.22;5053697;28;20185;-60
2021/08/18 04:01:48;;;;;;;4.23;1.43;;;;;;;20.32;47.42;101034.66;5053325;28;20309;-60
2021/08/18 04:04:13;;;;;;;3.80;1.37;;;;;;;20.41;47.37;101034.53;5053447;28;20181;-60
2021/08/18 04:06:39;;;;;;;3.43;1.57;;;;;;;20.34;47.29;101037.00;5053349;28;20189;-60
2021/08/18 04:09:04;;;;;;;3.63;1.30;;;;;;;20.34;47.64;101034.97;5053154;28;20182;-60
2021/08/18 04:11:30;;;;;;;4.03;1.40;;;;;;;20.01;47.74;100989.38;5053047;28;20178;-60
2021/08/18 04:13:55;;;;;;;1.83;1.30;;;;;;;20.40;47.43;101052.69;5053285;28;20179;-60
2021/08/18 04:16:21;;;;;;;3.60;1.33;;;;;;;20.35;47.25;101038.53;5053098;28;20177;-60
2021/08/18 04:18:46;;;;;;;2.70;1.10;;;;;;;20.09;47.14;100989.78;5052580;28;20707;-60
2021/08/18 04:21:13;;;;;;;4.47;1.20;;;;;;;20.40;47.14;101043.47;5052165;28;20240;-60
2021/08/18 04:23:38;;;;;;;5.33;1.23;;;;;;;20.44;46.98;101055.31;5053057;28;20179;-60
2021/08/18 04:26:04;;;;;;;3.37;1.30;;;;;;;20.39;46.92;101053.19;5052979;28;20262;-60
2021/08/18 04:28:30;;;;;;;3.63;1.20;;;;;;;20.47;46.56;101051.53;5052725;28;20231;-60
2021/08/18 04:30:55;;;;;;;3.43;1.20;;;;;;;20.59;46.43;101058.84;5052780;28;20180;-60
2021/08/18 04:33:21;;;;;;;4.33;1.10;;;;;;;20.64;46.44;101060.97;5052623;28;20180;-60
2021/08/18 04:35:46;;;;;;;3.70;1.40;;;;;;;20.76;46.03;101068.31;5052949;28;20179;-60
2021/08/18 04:38:12;;;;;;;2.80;1.10;;;;;;;20.72;46.13;101071.34;5052745;28;20172;-60
2021/08/18 04:40:38;;;;;;;2.77;1.17;;;;;;;20.76;45.62;101059.84;5046851;28;20176;-60
2021/08/18 04:43:03;;;;;;;2.80;1.30;;;;;;;20.50;45.41;101022.38;5050868;28;20776;-60
2021/08/18 04:45:29;;;;;;;2.43;1.40;;;;;;;20.77;45.45;101067.06;5048882;28;20207;-60
2021/08/18 04:47:54;;;;;;;4.63;1.33;;;;;;;20.94;45.59;101090.63;5052125;28;20213;-60
2021/08/18 04:50:20;;;;;;;3.37;1.07;;;;;;;20.89;45.41;101088.47;5051680;28;20184;-60
2021/08/18 04:52:45;;;;;;;4.50;1.40;;;;;;;21.10;44.81;101116.19;5048344;28;20416;-60
2021/08/18 04:55:13;;;;;;;3.20;1.10;;;;;;;21.12;45.05;101122.09;5052200;28;20671;-60
2021/08/18 04:57:39;;;;;;;3.87;1.00;;;;;;;20.99;44.91;101092.72;5052376;28;20192;-60
2021/08/18 05:00:07;;;;;;;4.10;1.23;;;;;;;21.25;44.37;101127.38;5051895;28;20200;-60
2021/08/18 05:02:36;;;;;;;5.40;1.47;;;;;;;21.29;44.47;101136.41;5050995;28;20207;-60
2021/08/18 05:05:03;;;;;;;3.00;1.30;;;;;;;21.31;43.81;101134.66;5051991;28;20176;-60
2021/08/18 05:07:29;;;;;;;2.63;1.13;;;;;;;21.31;43.64;101136.69;5051697;28;20200;-60
2021/08/18 05:09:55;;;;;;;4.80;1.10;;;;;;;21.47;43.64;101136.91;5051753;28;20173;-60
2021/08/18 05:12:21;;;;;;;8.10;1.10;;;;;;;21.34;43.50;101104.69;5051424;28;20223;-60
2021/08/18 05:14:46;;;;;;;2.47;0.87;;;;;;;21.58;43.38;101100.34;5051519;28;20246;-60
2021/08/18 05:17:12;;;;;;;5.00;1.37;;;;;;;21.61;42.36;101096.56;5051650;28;20173;-60
2021/08/18 05:19:37;;;;;;;6.80;1.20;;;;;;;21.88;41.85;101138.41;5051568;28;20234;-60
2021/08/18 05:22:03;;;;;;;5.13;1.30;;;;;;;21.90;41.54;101137.91;5051213;28;20217;-60
2021/08/18 05:24:29;;;;;;;5.47;1.13;;;;;;;21.88;41.40;101135.56;5050955;28;20183;-60
2021/08/18 05:26:54;;;;;;;5.00;1.10;;;;;;;21.93;42.09;101140.50;5051296;28;20184;-60
2021/08/18 05:29:20;;;;;;;3.60;1.30;;;;;;;21.94;41.98;101132.78;5051232;28;20642;-60
2021/08/18 05:31:45;;;;;;;5.13;1.13;;;;;;;22.03;41.29;101141.09;5050318;28;20180;-60
2021/08/18 05:34:11;;;;;;;2.33;0.90;;;;;;;22.21;41.25;101140.78;5051307;28;20176;-60
2021/08/18 05:36:37;;;;;;;6.43;1.00;;;;;;;22.29;40.34;101136.19;5051458;28;20177;-60
2021/08/18 05:39:03;;;;;;;3.20;0.97;;;;;;;22.28;40.48;101143.91;5051103;28;20183;-60
2021/08/18 05:41:29;;;;;;;2.90;0.90;;;;;;;22.40;40.14;101141.94;5032830;28;20278;-60
2021/08/18 05:43:55;;;;;;;3.37;1.10;;;;;;;22.31;40.56;101128.03;5033214;28;20315;-60
2021/08/18 05:46:20;;;;;;;4.00;1.10;;;;;;;22.38;40.26;101138.84;5050857;28;20222;-60
2021/08/18 05:48:45;;;;;;;5.13;1.20;;;;;;;22.01;40.17;101085.16;5051100;28;20196;-60
2021/08/18 05:51:11;;;;;;;6.20;1.10;;;;;;;22.52;40.16;101135.91;5050645;28;20275;-60
2021/08/18 05:53:36;;;;;;;1.37;0.80;;;;;;;22.70;40.34;101131.91;5051114;28;20719;-60
2021/08/18 05:56:02;;;;;;;4.77;1.07;;;;;;;22.77;39.99;101135.06;5051014;28;20203;-60
2021/08/18 05:58:27;;;;;;;2.80;1.00;;;;;;;22.81;40.04;101134.81;5050833;28;20211;-60
2021/08/18 06:00:53;;;;;;;5.80;1.30;;;;;;;22.86;39.58;101143.34;5050631;28;20191;-60
2021/08/18 06:03:18;;;;;;;2.00;0.90;;;;;;;22.95;39.34;101140.31;5050696;28;20188;-60
2021/08/18 06:05:44;;;;;;;4.67;1.17;;;;;;;22.95;39.13;101142.34;5050920;28;20182;-61
2021/08/18 06:08:09;;;;;;;1.57;0.83;;;;;;;22.96;39.42;101141.06;5050418;28;20627;-60
2021/08/18 06:10:35;;;;;;;3.43;1.10;;;;;;;22.98;39.04;101138.53;5050492;28;20176;-61
2021/08/18 06:13:01;;;;;;;4.07;0.90;;;;;;;23.06;39.08;101133.94;5050301;28;20184;-60
2021/08/18 06:15:31;;;;;;;4.30;1.00;;;;;;;22.94;39.10;101126.69;5050656;28;20211;-60
2021/08/18 06:17:57;;;;;;;4.93;1.03;;;;;;;23.09;39.68;101135.75;5051105;28;20545;-60
2021/08/18 06:20:23;;;;;;;3.70;1.20;;;;;;;23.23;38.59;101132.75;5050287;28;20185;-60
2021/08/18 06:22:49;;;;;;;2.83;1.00;;;;;;;23.10;39.26;101104.16;5050300;28;20173;-60
2021/08/18 06:25:15;;;;;;;3.43;0.97;;;;;;;23.32;38.61;101132.56;5050848;28;20176;-60
2021/08/18 06:27:41;;;;;;;2.37;0.87;;;;;;;23.39;38.51;101151.09;5050338;28;20211;-60
2021/08/18 06:30:08;;;;;;;4.03;1.00;;;;;;;23.45;38.85;101134.91;5032586;28;20176;-60
2021/08/18 06:32:33;;;;;;;4.50;1.30;;;;;;;23.14;38.44;101103.91;5049745;28;20181;-60
2021/08/18 06:34:59;;;;;;;4.70;1.17;;;;;;;23.22;38.93;101114.25;5050719;28;20185;-60
2021/08/18 06:37:25;;;;;;;4.23;1.10;;;;;;;23.40;38.56;101127.97;5032423;28;20172;-60
2021/08/18 06:39:50;;;;;;;3.70;1.00;;;;;;;23.01;38.45;101070.44;5050235;28;20184;-60
2021/08/18 06:42:16;;;;;;;2.40;1.00;;;;;;;23.61;38.51;101129.31;5050160;28;20263;-60
2021/08/18 06:44:42;;;;;;;6.03;1.40;;;;;;;23.72;38.12;101115.19;5036463;28;20260;-60
2021/08/18 06:47:08;;;;;;;2.40;0.87;;;;;;;23.39;37.64;101078.31;5054423;28;20278;-60
2021/08/18 06:49:34;;;;;;;2.47;1.00;;;;;;;23.59;37.35;101129.03;5054502;28;20204;-60
2021/08/18 06:52:00;;;;;;;3.70;1.17;;;;;;;23.60;37.40;101135.47;5053853;28;20199;-60
2021/08/18 06:54:25;;;;;;;3.63;1.20;;;;;;;23.67;37.95;101124.44;5054551;28;20595;-60
2021/08/18 06:56:51;;;;;;;6.77;1.40;;;;;;;23.50;37.24;101091.72;5054490;28;20176;-60
2021/08/18 06:59:17;;;;;;;3.93;1.20;;;;;;;23.35;37.04;101060.84;5054297;28;20182;-60
2021/08/18 07:01:43;;;;;;;3.00;1.00;;;;;;;23.92;37.08;101119.88;5053989;28;20202;-60
2021/08/18 07:04:09;;;;;;;2.80;1.20;;;;;;;24.00;37.72;101121.69;5054230;28;20230;-60
2021/08/18 07:06:35;;;;;;;3.47;1.00;;;;;;;24.06;37.15;101107.56;5054050;28;20184;-60
2021/08/18 07:09:01;;;;;;;3.70;1.10;;;;;;;24.20;36.69;101110.13;5053546;28;20172;-60
2021/08/18 07:11:27;;;;;;;2.10;1.30;;;;;;;24.08;36.46;101096.47;5053228;28;20192;-60
2021/08/18 07:13:59;;;;;;;3.87;0.90;;;;;;;23.56;37.39;101027.44;5053886;28;20668;-60
2021/08/18 07:16:28;;;;;;;4.43;1.07;;;;;;;24.00;37.03;101092.63;5054099;28;20157;-60
2021/08/18 07:18:54;;;;;;;4.97;1.20;;;;;;;24.11;36.79;101093.38;5053602;28;20715;-60
2021/08/18 07:21:21;;;;;;;2.73;1.00;;;;;;;24.17;37.49;101110.38;5053404;28;20677;-60
2021/08/18 07:23:52;;;;;;;3.70;1.00;;;;;;;24.34;37.14;101094.16;5053739;28;20324;-60
2021/08/18 07:26:18;;;;;;;4.97;0.90;;;;;;;24.16;36.98;101057.88;5053717;28;20654;-60
2021/08/18 07:28:44;;;;;;;4.67;1.10;;;;;;;24.67;36.95;101102.66;5053512;28;20208;-61
2021/08/18 07:31:10;;;;;;;5.40;1.20;;;;;;;24.65;36.10;101097.50;5053018;28;20184;-60
2021/08/18 07:33:36;;;;;;;6.50;1.17;;;;;;;24.72;36.08;101094.13;5053969;28;20195;-60
2021/08/18 07:36:02;;;;;;;5.00;1.40;;;;;;;24.66;35.41;101096.19;5053656;28;20176;-60
2021/08/18 07:38:28;;;;;;;5.33;1.10;;;;;;;24.78;35.57;101096.94;5053321;28;20183;-60
2021/08/18 07:40:53;;;;;;;3.97;1.17;;;;;;;24.84;35.09;101101.31;5053060;28;20183;-60
2021/08/18 07:43:19;;;;;;;5.27;1.30;;;;;;;24.77;35.18;101086.91;5052877;28;20246;-60
2021/08/18 07:45:44;;;;;;;3.17;1.10;;;;;;;24.80;34.83;101092.31;5053458;28;20259;-60
2021/08/18 07:48:10;;;;;;;6.07;1.03;;;;;;;24.85;35.24;101085.84;5053102;28;20204;-60
2021/08/18 07:50:35;;;;;;;4.87;1.37;;;;;;;25.08;34.64;101078.03;5053130;28;20596;-60
2021/08/18 07:53:01;;;;;;;4.33;1.20;;;;;;;25.29;34.13;101084.94;5053251;28;20569;-60
2021/08/18 07:55:27;;;;;;;2.87;1.30;;;;;;;25.27;33.50;101096.78;5053311;28;20179;-60
2021/08/18 07:57:52;;;;;;;6.03;1.40;;;;;;;25.43;33.18;101086.69;5052841;28;20176;-61
2021/08/18 08:00:18;;;;;;;5.27;1.33;;;;;;;25.17;33.00;101066.41;5053190;28;20172;-60
2021/08/18 08:02:44;;;;;;;7.33;1.40;;;;;;;25.31;33.08;101079.50;5052762;28;20199;-60
2021/08/18 08:05:11;;;;;;;5.90;1.37;;;;;;;25.33;33.42;101093.94;5053292;28;20583;-60
2021/08/18 08:07:37;;;;;;;3.53;1.37;;;;;;;25.35;33.29;101086.44;5053090;28;20254;-60
2021/08/18 08:10:05;;;;;;;2.17;1.10;;;;;;;25.31;32.44;101071.75;5053135;28;20229;-60
2021/08/18 08:12:31;;;;;;;9.83;1.57;;;;;;;25.37;33.22;101083.84;5052416;28;20176;-61
2021/08/18 08:14:57;;;;;;;3.63;1.20;;;;;;;25.36;33.10;101065.28;5053317;28;20212;-60
2021/08/18 08:17:22;;;;;;;4.93;1.57;;;;;;;25.34;32.55;101067.09;5034751;28;20219;-60
2021/08/18 08:19:48;;;;;;;6.97;1.40;;;;;;;25.44;32.62;101077.63;5052762;28;20177;-61
2021/08/18 08:22:14;;;;;;;3.00;1.40;;;;;;;25.54;32.70;101081.69;5052060;28;20172;-60
2021/08/18 08:24:39;;;;;;;3.93;1.17;;;;;;;25.57;32.18;101077.03;5052917;28;20172;-60
2021/08/18 08:27:05;;;;;;;3.67;1.17;;;;;;;25.35;33.10;101009.84;5052452;28;20232;-61
2021/08/18 08:29:30;;;;;;;2.83;1.20;;;;;;;25.80;32.88;101072.75;5052350;28;20347;-60
2021/08/18 08:31:56;;;;;;;3.70;1.40;;;;;;;25.82;32.38;101038.91;5051915;28;20188;-61
2021/08/18 08:34:22;;;;;;;2.07;1.30;;;;;;;26.18;31.72;101066.00;5052439;28;20186;-60
2021/08/18 08:36:48;;;;;;;4.70;1.23;;;;;;;26.10;31.62;101056.53;5052511;28;20199;-60
2021/08/18 08:39:13;;;;;;;3.17;1.40;;;;;;;26.15;32.26;101055.72;5052764;28;20666;-60
2021/08/18 08:41:48;;;;;;;3.17;1.33;;;;;;;26.34;31.37;101063.03;5052332;28;20192;-60
2021/08/18 08:44:19;;;;;;;6.50;1.50;;;;;;;26.08;31.62;101017.31;5052199;28;20281;-60
2021/08/18 08:46:46;;;;;;;4.73;1.50;;;;;;;26.35;31.38;101049.59;5052200;28;20176;-61
2021/08/18 08:49:13;;;;;;;3.07;1.47;;;;;;;26.48;31.42;101044.03;5052513;28;20242;-61
2021/08/18 08:51:38;;;;;;;4.07;1.37;;;;;;;26.65;30.88;101061.69;5051617;28;20196;-60
2021/08/18 08:54:04;;;;;;;3.97;1.30;;;;;;;26.66;30.44;101049.06;5052408;28;20172;-60
2021/08/18 08:56:29;;;;;;;5.07;1.40;;;;;;;26.79;31.21;101046.28;5052055;28;20184;-60
2021/08/18 08:58:55;;;;;;;5.10;1.60;;;;;;;26.88;31.13;101043.88;5051983;28;20283;-61
2021/08/18 09:01:20;;;;;;;3.87;1.60;;;;;;;27.06;31.00;101051.66;5051094;28;20187;-60
2021/08/18 09:03:46;;;;;;;3.23;1.63;;;;;;;27.03;30.70;101044.19;5051876;28;20199;-61
2021/08/18 09:06:11;;;;;;;2.93;1.20;;;;;;;26.90;31.04;101041.25;5033435;28;20238;-60
2021/08/18 09:08:48;;;;;;;4.47;1.50;;;;;;;27.16;30.74;101052.03;5051729;28;20204;-60
2021/08/18 09:11:15;;;;;;;2.43;1.30;;;;;;;27.26;30.41;101042.63;5051346;28;20175;-61
2021/08/18 09:13:49;;;;;;;5.53;1.60;;;;;;;27.39;30.02;101044.78;5051697;28;20310;-61
2021/08/18 09:16:17;;;;;;;3.20;1.50;;;;;;;27.55;29.07;101043.75;5051830;28;20552;-61
2021/08/18 09:18:44;;;;;;;4.60;1.53;;;;;;;27.54;29.76;101034.44;5051822;28;20172;-61
2021/08/18 09:21:29;;;;;;;4.03;1.50;;;;;;;27.65;28.83;101031.44;5050829;28;20188;-60
2021/08/18 09:24:16;;;;;;;2.40;1.23;;;;;;;27.56;29.76;101028.22;5051642;28;20242;-61
2021/08/18 09:26:52;;;;;;;3.03;1.40;;;;;;;27.49;29.44;101028.84;5033549;28;20199;-61
2021/08/18 09:29:45;;;;;;;3.20;1.37;;;;;;;27.50;29.10;101027.53;5051278;28;20184;-61
2021/08/18 09:32:20;;;;;;;3.63;1.50;;;;;;;27.59;29.88;101022.19;5048650;28;20203;-61
2021/08/18 09:34:58;;;;;;;2.23;1.50;;;;;;;27.71;29.83;101014.25;5051620;28;20188;-61
2021/08/18 09:37:25;;;;;;;2.53;1.33;;;;;;;27.63;30.01;100979.19;5050898;28;20322;-61
2021/08/18 09:39:51;;;;;;;2.97;1.37;;;;;;;27.74;29.81;100998.94;5051231;28;20191;-61
2021/08/18 09:42:33;;;;;;;3.90;1.37;;;;;;;27.69;29.26;101000.56;5051452;28;20657;-60
2021/08/18 09:45:14;;;;;;;3.13;1.50;;;;;;;27.89;30.44;100999.25;5051113;28;20188;-60
2021/08/18 09:47:58;;;;;;;4.17;1.67;;;;;;;28.09;29.83;101002.25;5051069;28;20214;-61
2021/08/18 09:50:25;;;;;;;4.53;1.70;;;;;;;28.18;29.17;101001.03;5050838;28;20570;-60
2021/08/18 09:52:52;;;;;;;4.30;1.70;;;;;;;28.22;29.13;100993.72;5050159;28;20184;-61
2021/08/18 09:55:23;;;;;;;5.78;1.40;;;;;;;28.42;28.61;101000.88;5050946;28;20184;-60
2021/08/18 09:57:49;;;;;;;3.17;1.52;;;;;;;28.58;28.89;100996.94;5050221;28;20723;-61
2021/08/18 10:00:15;;;;;;;8.13;1.60;;;;;;;28.68;28.07;100995.19;5050583;28;20191;-61
2021/08/18 10:02:41;;;;;;;4.20;1.50;;;;;;;27.72;28.29;100845.72;5050156;28;20574;-61
2021/08/18 10:05:07;;;;;;;3.25;1.58;;;;;;;28.75;29.81;100997.38;5050774;28;20199;-61
2021/08/18 10:07:34;;;;;;;5.35;1.58;;;;;;;28.86;28.24;100988.59;5050214;28;20211;-60
2021/08/18 10:10:03;;;;;;;4.22;1.70;;;;;;;28.81;28.48;100947.44;5050541;28;20318;-61
2021/08/18 10:12:29;;;;;;;3.72;1.27;;;;;;;28.87;28.75;100942.38;5049913;28;20180;-61
2021/08/18 10:14:55;;;;;;;5.97;1.83;;;;;;;29.29;28.36;100989.72;5050699;28;20181;-61
2021/08/18 10:17:21;;;;;;;4.90;1.52;;;;;;;29.36;28.20;100986.19;5049207;28;20176;-61
2021/08/18 10:19:51;;;;;;;3.50;1.70;;;;;;;29.60;28.15;100979.41;5050419;28;20569;-61
2021/08/18 10:22:27;;;;;;;7.57;2.15;;;;;;;29.62;28.32;100993.91;5049801;28;20271;-61
2021/08/18 10:24:53;;;;;;;5.90;1.65;;;;;;;29.53;27.97;100923.72;5049314;28;20220;-61
2021/08/18 10:27:47;;;;;;;5.43;1.65;;;;;;;29.99;27.40;100982.06;5050295;28;20297;-61
2021/08/18 10:30:24;;;;;;;4.60;1.55;;;;;;;30.14;27.49;100976.50;5050549;28;20585;-61
2021/08/18 10:32:50;;;;;;;7.35;1.92;;;;;;;30.07;27.06;100966.50;5049715;28;20244;-61
2021/08/18 10:35:34;;;;;;;5.45;1.50;;;;;;;30.22;26.79;100971.59;5050313;28;20177;-61
2021/08/18 10:38:24;;;;;;;7.75;1.95;;;;;;;29.97;27.63;100967.56;5050412;28;20182;-61
2021/08/18 10:40:53;;;;;;;7.82;1.70;;;;;;;30.04;27.90;100958.28;5049862;28;20212;-61
2021/08/18 10:43:55;;;;;;;5.40;1.45;;;;;;;30.22;27.15;100960.16;5049745;28;20705;-61
2021/08/18 10:46:22;;;;;;;4.35;1.45;;;;;;;30.06;27.81;100964.97;5045823;28;20203;-61
2021/08/18 10:48:53;;;;;;;6.10;1.70;;;;;;;30.17;27.48;100956.13;5050117;28;20210;-61
2021/08/18 10:51:40;;;;;;;4.82;1.50;;;;;;;30.17;27.26;100947.56;5049658;28;20662;-61
2021/08/18 10:54:27;;;;;;;7.15;1.95;;;;;;;30.02;27.65;100952.34;5050859;28;20176;-61
2021/08/18 10:56:57;;;;;;;7.30;1.70;;;;;;;29.91;27.55;100941.22;5049936;28;20643;-61
2021/08/18 10:59:50;;;;;;;6.25;1.95;;;;;;;29.98;28.42;100941.28;5050022;28;20184;-61
2021/08/18 11:02:52;;;;;;;5.40;1.70;;;;;;;29.99;27.67;100945.66;5044047;28;20208;-61
2021/08/18 11:05:24;;;;;;;8.05;1.73;;;;;;;29.96;27.91;100934.59;5050309;28;20577;-61
2021/08/18 11:08:01;;;;;;;8.77;2.28;;;;;;;30.03;28.25;100931.78;5050096;28;20192;-61
2021/08/18 11:10:27;;;;;;;6.13;1.73;;;;;;;30.19;28.32;100942.03;5049695;28;20553;-61
2021/08/18 11:12:54;;;;;;;5.32;1.95;;;;;;;30.11;27.62;100926.94;5049312;28;20234;-61
2021/08/18 11:15:20;;;;;;;5.85;1.75;;;;;;;30.09;27.99;100934.50;5050224;28;20188;-61
2021/08/18 11:17:50;;;;;;;6.18;1.92;;;;;;;30.12;28.27;100933.41;5032176;28;20193;-61
2021/08/18 11:20:24;;;;;;;9.45;2.00;;;;;;;30.17;27.70;100932.50;5049723;28;20179;-61
2021/08/18 11:23:03;;;;;;;5.05;1.92;;;;;;;30.13;27.98;100937.78;5049380;28;20329;-61
2021/08/18 11:25:29;;;;;;;5.00;1.70;;;;;;;29.94;27.76;100915.16;5049933;28;20673;-61
2021/08/18 11:27:57;;;;;;;5.18;2.13;;;;;;;29.94;27.63;100900.84;5050036;28;20299;-61
2021/08/18 11:30:28;;;;;;;5.47;1.90;;;;;;;30.48;28.38;100925.63;5052675;28;20181;-61